sensor_id;sensor_type;location;lat;lon;timestamp;P1;durP1;ratioP1;P2;durP2;ratioP2
25333;SDS011;24559;53.590;9.764;2023-09-08T00:00:05;9.75;;;8.75;;
25333;SDS011;24559;53.590;9.764;2023-09-08T00:02:32;9.23;;;8.40;;
25333;SDS011;24559;53.590;9.764;2023-09-08T00:04:58;10.32;;;7.63;;
25333;SDS011;24559;53.590;9.764;2023-09-08T00:07:24;11.15;;;7.93;;
25333;SDS011;24559;53.590;9.764;2023-09-08T00:09:50;10.93;;;9.10;;
25333;SDS011;24559;53.590;9.764;2023-09-08T00:12:16;8.80;;;7.88;;
25333;SDS011;24559;53.590;9.764;2023-09-08T00:14:43;9.30;;;8.20;;
25333;SDS011;24559;53.590;9.764;2023-09-08T00:17:09;8.55;;;7.85;;
25333;SDS011;24559;53.590;9.764;2023-09-08T00:19:35;8.70;;;7.80;;
25333;SDS011;24559;53.590;9.764;2023-09-08T00:22:02;8.95;;;7.75;;
25333;SDS011;24559;53.590;9.764;2023-09-08T00:24:31;8.30;;;7.53;;
25333;SDS011;24559;53.590;9.764;2023-09-08T00:26:57;8.40;;;7.70;;
25333;SDS011;24559;53.590;9.764;2023-09-08T00:29:23;8.40;;;7.45;;
25333;SDS011;24559;53.590;9.764;2023-09-08T00:31:49;8.55;;;7.70;;
25333;SDS011;24559;53.590;9.764;2023-09-08T00:34:15;8.38;;;7.63;;
25333;SDS011;24559;53.590;9.764;2023-09-08T00:36:41;7.82;;;7.18;;
25333;SDS011;24559;53.590;9.764;2023-09-08T00:39:08;8.32;;;7.43;;
25333;SDS011;24559;53.590;9.764;2023-09-08T00:41:34;8.40;;;7.65;;
25333;SDS011;24559;53.590;9.764;2023-09-08T00:44:00;8.93;;;8.13;;
25333;SDS011;24559;53.590;9.764;2023-09-08T00:46:27;9.20;;;8.40;;
25333;SDS011;24559;53.590;9.764;2023-09-08T00:48:53;7.95;;;7.15;;
25333;SDS011;24559;53.590;9.764;2023-09-08T00:51:20;8.50;;;7.80;;
25333;SDS011;24559;53.590;9.764;2023-09-08T00:53:47;8.30;;;7.38;;
25333;SDS011;24559;53.590;9.764;2023-09-08T00:56:14;9.02;;;7.90;;
25333;SDS011;24559;53.590;9.764;2023-09-08T00:58:41;7.55;;;6.95;;
25333;SDS011;24559;53.590;9.764;2023-09-08T01:01:07;8.98;;;8.15;;
25333;SDS011;24559;53.590;9.764;2023-09-08T01:03:33;8.90;;;7.97;;
25333;SDS011;24559;53.590;9.764;2023-09-08T01:06:00;11.77;;;9.20;;
25333;SDS011;24559;53.590;9.764;2023-09-08T01:08:26;9.13;;;8.10;;
25333;SDS011;24559;53.590;9.764;2023-09-08T01:10:52;8.88;;;7.88;;
25333;SDS011;24559;53.590;9.764;2023-09-08T01:13:19;9.32;;;8.00;;
25333;SDS011;24559;53.590;9.764;2023-09-08T01:15:45;9.18;;;8.20;;
25333;SDS011;24559;53.590;9.764;2023-09-08T01:18:11;8.70;;;7.72;;
25333;SDS011;24559;53.590;9.764;2023-09-08T01:23:24;9.77;;;8.32;;
25333;SDS011;24559;53.590;9.764;2023-09-08T01:25:55;8.88;;;8.00;;
25333;SDS011;24559;53.590;9.764;2023-09-08T01:28:22;8.60;;;7.78;;
25333;SDS011;24559;53.590;9.764;2023-09-08T01:30:49;8.65;;;7.78;;
25333;SDS011;24559;53.590;9.764;2023-09-08T01:33:16;9.18;;;8.20;;
25333;SDS011;24559;53.590;9.764;2023-09-08T01:35:43;8.50;;;7.60;;
25333;SDS011;24559;53.590;9.764;2023-09-08T01:38:10;8.50;;;7.70;;
25333;SDS011;24559;53.590;9.764;2023-09-08T01:40:36;9.07;;;7.32;;
25333;SDS011;24559;53.590;9.764;2023-09-08T01:43:02;9.30;;;7.72;;
25333;SDS011;24559;53.590;9.764;2023-09-08T01:45:29;9.38;;;8.43;;
25333;SDS011;24559;53.590;9.764;2023-09-08T01:47:55;7.68;;;6.88;;
25333;SDS011;24559;53.590;9.764;2023-09-08T01:50:21;8.90;;;8.00;;
25333;SDS011;24559;53.590;9.764;2023-09-08T01:52:49;9.10;;;8.10;;
25333;SDS011;24559;53.590;9.764;2023-09-08T01:55:15;9.02;;;8.15;;
25333;SDS011;24559;53.590;9.764;2023-09-08T01:57:42;8.75;;;7.95;;
25333;SDS011;24559;53.590;9.764;2023-09-08T02:00:09;8.57;;;7.78;;
25333;SDS011;24559;53.590;9.764;2023-09-08T02:02:39;9.10;;;7.18;;
25333;SDS011;24559;53.590;9.764;2023-09-08T02:05:06;8.50;;;7.47;;
25333;SDS011;24559;53.590;9.764;2023-09-08T02:07:33;8.10;;;7.40;;
25333;SDS011;24559;53.590;9.764;2023-09-08T02:09:59;11.80;;;8.27;;
25333;SDS011;24559;53.590;9.764;2023-09-08T02:12:25;7.68;;;7.07;;
25333;SDS011;24559;53.590;9.764;2023-09-08T02:14:54;7.45;;;6.72;;
25333;SDS011;24559;53.590;9.764;2023-09-08T02:17:20;9.07;;;8.18;;
25333;SDS011;24559;53.590;9.764;2023-09-08T02:19:46;7.70;;;7.00;;
25333;SDS011;24559;53.590;9.764;2023-09-08T02:22:13;8.13;;;7.30;;
25333;SDS011;24559;53.590;9.764;2023-09-08T02:24:39;7.53;;;6.78;;
25333;SDS011;24559;53.590;9.764;2023-09-08T02:27:05;8.40;;;7.65;;
25333;SDS011;24559;53.590;9.764;2023-09-08T02:29:32;8.95;;;8.07;;
25333;SDS011;24559;53.590;9.764;2023-09-08T02:31:58;7.60;;;6.80;;
25333;SDS011;24559;53.590;9.764;2023-09-08T02:34:24;8.45;;;7.60;;
25333;SDS011;24559;53.590;9.764;2023-09-08T02:36:51;8.57;;;7.70;;
25333;SDS011;24559;53.590;9.764;2023-09-08T02:39:21;8.95;;;8.05;;
25333;SDS011;24559;53.590;9.764;2023-09-08T02:41:48;8.50;;;7.63;;
25333;SDS011;24559;53.590;9.764;2023-09-08T02:44:15;9.15;;;7.20;;
25333;SDS011;24559;53.590;9.764;2023-09-08T02:46:42;8.85;;;7.30;;
25333;SDS011;24559;53.590;9.764;2023-09-08T02:49:09;7.95;;;7.25;;
25333;SDS011;24559;53.590;9.764;2023-09-08T02:51:35;9.60;;;6.95;;
25333;SDS011;24559;53.590;9.764;2023-09-08T02:54:01;8.20;;;7.40;;
25333;SDS011;24559;53.590;9.764;2023-09-08T02:56:27;10.48;;;7.78;;
25333;SDS011;24559;53.590;9.764;2023-09-08T02:58:53;8.02;;;7.30;;
25333;SDS011;24559;53.590;9.764;2023-09-08T03:01:20;7.53;;;6.93;;
25333;SDS011;24559;53.590;9.764;2023-09-08T03:03:46;8.77;;;7.70;;
25333;SDS011;24559;53.590;9.764;2023-09-08T03:06:14;8.38;;;7.57;;
25333;SDS011;24559;53.590;9.764;2023-09-08T03:08:40;8.35;;;7.65;;
25333;SDS011;24559;53.590;9.764;2023-09-08T03:11:07;9.95;;;7.65;;
25333;SDS011;24559;53.590;9.764;2023-09-08T03:13:34;8.82;;;7.93;;
25333;SDS011;24559;53.590;9.764;2023-09-08T03:16:04;8.98;;;7.78;;
25333;SDS011;24559;53.590;9.764;2023-09-08T03:18:30;9.32;;;8.32;;
25333;SDS011;24559;53.590;9.764;2023-09-08T03:20:57;10.40;;;8.77;;
25333;SDS011;24559;53.590;9.764;2023-09-08T03:23:24;9.07;;;8.20;;
25333;SDS011;24559;53.590;9.764;2023-09-08T03:25:50;8.75;;;7.90;;
25333;SDS011;24559;53.590;9.764;2023-09-08T03:28:20;8.35;;;7.55;;
25333;SDS011;24559;53.590;9.764;2023-09-08T03:30:46;9.43;;;8.52;;
25333;SDS011;24559;53.590;9.764;2023-09-08T03:33:12;9.35;;;8.45;;
25333;SDS011;24559;53.590;9.764;2023-09-08T03:35:39;9.57;;;8.68;;
25333;SDS011;24559;53.590;9.764;2023-09-08T03:38:05;7.53;;;6.70;;
25333;SDS011;24559;53.590;9.764;2023-09-08T03:40:32;8.68;;;7.88;;
25333;SDS011;24559;53.590;9.764;2023-09-08T03:42:58;9.07;;;8.13;;
25333;SDS011;24559;53.590;9.764;2023-09-08T03:45:24;9.50;;;8.57;;
25333;SDS011;24559;53.590;9.764;2023-09-08T03:47:50;8.55;;;7.75;;
25333;SDS011;24559;53.590;9.764;2023-09-08T03:50:17;9.23;;;8.32;;
25333;SDS011;24559;53.590;9.764;2023-09-08T03:52:43;9.50;;;8.60;;
25333;SDS011;24559;53.590;9.764;2023-09-08T03:55:09;9.30;;;8.15;;
25333;SDS011;24559;53.590;9.764;2023-09-08T03:57:36;10.93;;;8.38;;
25333;SDS011;24559;53.590;9.764;2023-09-08T04:00:02;9.27;;;7.93;;
25333;SDS011;24559;53.590;9.764;2023-09-08T04:02:39;10.90;;;7.95;;
25333;SDS011;24559;53.590;9.764;2023-09-08T04:05:05;9.15;;;8.13;;
25333;SDS011;24559;53.590;9.764;2023-09-08T04:07:32;9.30;;;7.38;;
25333;SDS011;24559;53.590;9.764;2023-09-08T04:09:58;9.55;;;8.70;;
25333;SDS011;24559;53.590;9.764;2023-09-08T04:12:24;10.57;;;9.07;;
25333;SDS011;24559;53.590;9.764;2023-09-08T04:14:50;11.57;;;8.90;;
25333;SDS011;24559;53.590;9.764;2023-09-08T04:17:17;11.02;;;9.93;;
25333;SDS011;24559;53.590;9.764;2023-09-08T04:19:44;9.88;;;8.85;;
25333;SDS011;24559;53.590;9.764;2023-09-08T04:22:10;9.57;;;8.63;;
25333;SDS011;24559;53.590;9.764;2023-09-08T04:24:37;13.10;;;8.80;;
25333;SDS011;24559;53.590;9.764;2023-09-08T04:27:03;10.73;;;9.73;;
25333;SDS011;24559;53.590;9.764;2023-09-08T04:29:30;9.20;;;8.30;;
25333;SDS011;24559;53.590;9.764;2023-09-08T04:31:56;9.50;;;8.50;;
25333;SDS011;24559;53.590;9.764;2023-09-08T04:34:22;10.02;;;9.00;;
25333;SDS011;24559;53.590;9.764;2023-09-08T04:36:49;11.30;;;10.05;;
25333;SDS011;24559;53.590;9.764;2023-09-08T04:39:15;11.32;;;9.65;;
25333;SDS011;24559;53.590;9.764;2023-09-08T04:41:41;10.73;;;9.27;;
25333;SDS011;24559;53.590;9.764;2023-09-08T04:44:07;11.20;;;9.95;;
25333;SDS011;24559;53.590;9.764;2023-09-08T04:46:35;10.70;;;9.63;;
25333;SDS011;24559;53.590;9.764;2023-09-08T04:49:01;13.32;;;9.10;;
25333;SDS011;24559;53.590;9.764;2023-09-08T04:51:27;9.60;;;8.70;;
25333;SDS011;24559;53.590;9.764;2023-09-08T04:53:54;10.95;;;9.52;;
25333;SDS011;24559;53.590;9.764;2023-09-08T04:56:20;9.80;;;8.43;;
25333;SDS011;24559;53.590;9.764;2023-09-08T04:58:47;11.27;;;9.95;;
25333;SDS011;24559;53.590;9.764;2023-09-08T05:01:13;10.07;;;9.18;;
25333;SDS011;24559;53.590;9.764;2023-09-08T05:03:39;10.80;;;9.57;;
25333;SDS011;24559;53.590;9.764;2023-09-08T05:06:06;9.80;;;8.70;;
25333;SDS011;24559;53.590;9.764;2023-09-08T05:08:33;12.05;;;9.45;;
25333;SDS011;24559;53.590;9.764;2023-09-08T05:10:59;9.40;;;8.50;;
25333;SDS011;24559;53.590;9.764;2023-09-08T05:13:25;10.63;;;9.07;;
25333;SDS011;24559;53.590;9.764;2023-09-08T05:15:52;10.73;;;9.63;;
25333;SDS011;24559;53.590;9.764;2023-09-08T05:18:26;11.88;;;10.27;;
25333;SDS011;24559;53.590;9.764;2023-09-08T05:20:53;13.55;;;10.35;;
25333;SDS011;24559;53.590;9.764;2023-09-08T05:23:19;14.95;;;10.07;;
25333;SDS011;24559;53.590;9.764;2023-09-08T05:25:46;13.32;;;9.98;;
25333;SDS011;24559;53.590;9.764;2023-09-08T05:28:12;12.48;;;10.63;;
25333;SDS011;24559;53.590;9.764;2023-09-08T05:30:38;16.90;;;10.07;;
25333;SDS011;24559;53.590;9.764;2023-09-08T05:33:05;11.98;;;9.70;;
25333;SDS011;24559;53.590;9.764;2023-09-08T05:35:32;12.25;;;10.85;;
25333;SDS011;24559;53.590;9.764;2023-09-08T05:37:59;14.57;;;10.25;;
25333;SDS011;24559;53.590;9.764;2023-09-08T05:40:25;11.65;;;9.60;;
25333;SDS011;24559;53.590;9.764;2023-09-08T05:42:51;13.07;;;11.35;;
25333;SDS011;24559;53.590;9.764;2023-09-08T05:45:18;10.57;;;9.23;;
25333;SDS011;24559;53.590;9.764;2023-09-08T05:47:44;13.30;;;9.80;;
25333;SDS011;24559;53.590;9.764;2023-09-08T05:50:11;11.10;;;9.43;;
25333;SDS011;24559;53.590;9.764;2023-09-08T05:52:37;11.45;;;10.25;;
25333;SDS011;24559;53.590;9.764;2023-09-08T05:55:04;10.80;;;9.75;;
25333;SDS011;24559;53.590;9.764;2023-09-08T05:57:31;10.40;;;9.50;;
25333;SDS011;24559;53.590;9.764;2023-09-08T05:59:57;10.05;;;9.00;;
25333;SDS011;24559;53.590;9.764;2023-09-08T06:02:23;10.73;;;9.63;;
25333;SDS011;24559;53.590;9.764;2023-09-08T06:04:50;12.30;;;9.77;;
25333;SDS011;24559;53.590;9.764;2023-09-08T06:07:17;11.02;;;9.60;;
25333;SDS011;24559;53.590;9.764;2023-09-08T06:09:43;13.60;;;8.93;;
25333;SDS011;24559;53.590;9.764;2023-09-08T06:12:09;11.60;;;8.88;;
25333;SDS011;24559;53.590;9.764;2023-09-08T06:14:36;14.15;;;9.38;;
25333;SDS011;24559;53.590;9.764;2023-09-08T06:17:02;10.27;;;9.15;;
25333;SDS011;24559;53.590;9.764;2023-09-08T06:19:29;10.40;;;9.07;;
25333;SDS011;24559;53.590;9.764;2023-09-08T06:21:55;12.23;;;8.88;;
25333;SDS011;24559;53.590;9.764;2023-09-08T06:24:21;9.40;;;8.07;;
25333;SDS011;24559;53.590;9.764;2023-09-08T06:26:48;12.02;;;9.95;;
25333;SDS011;24559;53.590;9.764;2023-09-08T06:29:15;11.93;;;9.07;;
25333;SDS011;24559;53.590;9.764;2023-09-08T06:31:41;9.93;;;8.98;;
25333;SDS011;24559;53.590;9.764;2023-09-08T06:34:07;10.88;;;8.55;;
25333;SDS011;24559;53.590;9.764;2023-09-08T06:36:33;11.98;;;8.82;;
25333;SDS011;24559;53.590;9.764;2023-09-08T06:38:59;10.40;;;8.95;;
25333;SDS011;24559;53.590;9.764;2023-09-08T06:41:26;8.70;;;7.75;;
25333;SDS011;24559;53.590;9.764;2023-09-08T06:43:53;10.10;;;8.80;;
25333;SDS011;24559;53.590;9.764;2023-09-08T06:46:21;12.30;;;8.68;;
25333;SDS011;24559;53.590;9.764;2023-09-08T06:48:48;10.70;;;8.43;;
25333;SDS011;24559;53.590;9.764;2023-09-08T06:51:14;11.00;;;8.35;;
25333;SDS011;24559;53.590;9.764;2023-09-08T06:53:42;9.45;;;8.25;;
25333;SDS011;24559;53.590;9.764;2023-09-08T06:56:09;8.63;;;7.72;;
25333;SDS011;24559;53.590;9.764;2023-09-08T06:58:35;11.35;;;8.35;;
25333;SDS011;24559;53.590;9.764;2023-09-08T07:01:03;13.02;;;7.85;;
25333;SDS011;24559;53.590;9.764;2023-09-08T07:03:29;10.48;;;8.23;;
25333;SDS011;24559;53.590;9.764;2023-09-08T07:06:02;9.07;;;7.55;;
25333;SDS011;24559;53.590;9.764;2023-09-08T07:08:29;9.65;;;8.35;;
25333;SDS011;24559;53.590;9.764;2023-09-08T07:10:56;8.85;;;7.95;;
25333;SDS011;24559;53.590;9.764;2023-09-08T07:13:22;8.93;;;7.95;;
25333;SDS011;24559;53.590;9.764;2023-09-08T07:15:48;9.25;;;7.95;;
25333;SDS011;24559;53.590;9.764;2023-09-08T07:18:15;12.02;;;8.20;;
25333;SDS011;24559;53.590;9.764;2023-09-08T07:20:45;10.35;;;8.82;;
25333;SDS011;24559;53.590;9.764;2023-09-08T07:23:12;9.98;;;7.40;;
25333;SDS011;24559;53.590;9.764;2023-09-08T07:25:38;8.43;;;7.63;;
25333;SDS011;24559;53.590;9.764;2023-09-08T07:28:04;10.30;;;7.75;;
25333;SDS011;24559;53.590;9.764;2023-09-08T07:30:31;13.52;;;8.13;;
25333;SDS011;24559;53.590;9.764;2023-09-08T07:32:58;8.00;;;7.20;;
25333;SDS011;24559;53.590;9.764;2023-09-08T07:35:24;11.38;;;7.75;;
25333;SDS011;24559;53.590;9.764;2023-09-08T07:37:51;8.77;;;6.95;;
25333;SDS011;24559;53.590;9.764;2023-09-08T07:40:17;10.00;;;7.07;;
25333;SDS011;24559;53.590;9.764;2023-09-08T07:42:43;9.00;;;7.20;;
25333;SDS011;24559;53.590;9.764;2023-09-08T07:45:12;8.93;;;7.50;;
25333;SDS011;24559;53.590;9.764;2023-09-08T07:47:38;8.93;;;6.57;;
25333;SDS011;24559;53.590;9.764;2023-09-08T07:52:44;10.10;;;7.82;;
25333;SDS011;24559;53.590;9.764;2023-09-08T07:55:10;7.60;;;6.90;;
25333;SDS011;24559;53.590;9.764;2023-09-08T07:57:36;8.35;;;6.25;;
25333;SDS011;24559;53.590;9.764;2023-09-08T08:00:03;9.10;;;6.47;;
25333;SDS011;24559;53.590;9.764;2023-09-08T08:02:37;8.73;;;7.00;;
25333;SDS011;24559;53.590;9.764;2023-09-08T08:05:04;9.48;;;6.95;;
25333;SDS011;24559;53.590;9.764;2023-09-08T08:07:30;9.55;;;7.00;;
25333;SDS011;24559;53.590;9.764;2023-09-08T08:09:57;7.07;;;6.38;;
25333;SDS011;24559;53.590;9.764;2023-09-08T08:12:23;7.82;;;7.00;;
25333;SDS011;24559;53.590;9.764;2023-09-08T08:14:49;11.90;;;7.10;;
25333;SDS011;24559;53.590;9.764;2023-09-08T08:17:15;7.53;;;6.90;;
25333;SDS011;24559;53.590;9.764;2023-09-08T08:19:43;7.88;;;6.93;;
25333;SDS011;24559;53.590;9.764;2023-09-08T08:22:09;7.85;;;6.35;;
25333;SDS011;24559;53.590;9.764;2023-09-08T08:24:35;7.18;;;6.57;;
25333;SDS011;24559;53.590;9.764;2023-09-08T08:27:01;8.35;;;6.53;;
25333;SDS011;24559;53.590;9.764;2023-09-08T08:29:28;8.88;;;6.07;;
25333;SDS011;24559;53.590;9.764;2023-09-08T08:31:54;7.95;;;6.68;;
25333;SDS011;24559;53.590;9.764;2023-09-08T08:34:20;7.18;;;6.55;;
25333;SDS011;24559;53.590;9.764;2023-09-08T08:36:47;8.75;;;6.80;;
25333;SDS011;24559;53.590;9.764;2023-09-08T08:39:13;7.47;;;6.80;;
25333;SDS011;24559;53.590;9.764;2023-09-08T08:41:40;14.23;;;7.43;;
25333;SDS011;24559;53.590;9.764;2023-09-08T08:44:09;9.30;;;6.65;;
25333;SDS011;24559;53.590;9.764;2023-09-08T08:46:36;7.07;;;6.43;;
25333;SDS011;24559;53.590;9.764;2023-09-08T08:49:04;7.38;;;6.50;;
25333;SDS011;24559;53.590;9.764;2023-09-08T08:51:30;7.90;;;6.40;;
25333;SDS011;24559;53.590;9.764;2023-09-08T08:53:57;7.60;;;6.57;;
25333;SDS011;24559;53.590;9.764;2023-09-08T08:56:23;7.35;;;6.15;;
25333;SDS011;24559;53.590;9.764;2023-09-08T08:58:50;7.72;;;5.85;;
25333;SDS011;24559;53.590;9.764;2023-09-08T09:01:16;8.07;;;6.22;;
25333;SDS011;24559;53.590;9.764;2023-09-08T09:03:44;6.75;;;5.95;;
25333;SDS011;24559;53.590;9.764;2023-09-08T09:06:13;7.68;;;6.43;;
25333;SDS011;24559;53.590;9.764;2023-09-08T09:08:44;8.27;;;5.72;;
25333;SDS011;24559;53.590;9.764;2023-09-08T09:11:11;6.37;;;5.87;;
25333;SDS011;24559;53.590;9.764;2023-09-08T09:13:38;8.15;;;6.35;;
25333;SDS011;24559;53.590;9.764;2023-09-08T09:16:04;5.72;;;5.32;;
25333;SDS011;24559;53.590;9.764;2023-09-08T09:18:48;6.53;;;5.70;;
25333;SDS011;24559;53.590;9.764;2023-09-08T09:21:19;8.07;;;6.40;;
25333;SDS011;24559;53.590;9.764;2023-09-08T09:23:45;6.18;;;5.57;;
25333;SDS011;24559;53.590;9.764;2023-09-08T09:26:11;9.07;;;5.70;;
25333;SDS011;24559;53.590;9.764;2023-09-08T09:28:48;7.63;;;5.75;;
25333;SDS011;24559;53.590;9.764;2023-09-08T09:31:17;7.05;;;5.93;;
25333;SDS011;24559;53.590;9.764;2023-09-08T09:33:44;7.05;;;6.35;;
25333;SDS011;24559;53.590;9.764;2023-09-08T09:36:19;7.82;;;6.40;;
25333;SDS011;24559;53.590;9.764;2023-09-08T09:38:46;8.88;;;5.88;;
25333;SDS011;24559;53.590;9.764;2023-09-08T09:41:13;7.38;;;6.57;;
25333;SDS011;24559;53.590;9.764;2023-09-08T09:43:39;6.80;;;5.85;;
25333;SDS011;24559;53.590;9.764;2023-09-08T09:46:08;6.90;;;6.20;;
25333;SDS011;24559;53.590;9.764;2023-09-08T09:48:35;7.00;;;5.63;;
25333;SDS011;24559;53.590;9.764;2023-09-08T09:51:14;6.35;;;5.53;;
25333;SDS011;24559;53.590;9.764;2023-09-08T09:53:41;8.95;;;5.80;;
25333;SDS011;24559;53.590;9.764;2023-09-08T09:56:09;5.95;;;5.35;;
25333;SDS011;24559;53.590;9.764;2023-09-08T09:58:36;7.60;;;6.50;;
25333;SDS011;24559;53.590;9.764;2023-09-08T10:01:04;7.05;;;6.00;;
25333;SDS011;24559;53.590;9.764;2023-09-08T10:03:30;7.75;;;5.72;;
25333;SDS011;24559;53.590;9.764;2023-09-08T10:05:59;7.10;;;6.30;;
25333;SDS011;24559;53.590;9.764;2023-09-08T10:08:25;11.32;;;6.72;;
25333;SDS011;24559;53.590;9.764;2023-09-08T10:10:52;9.20;;;5.70;;
25333;SDS011;24559;53.590;9.764;2023-09-08T10:13:24;5.72;;;5.20;;
25333;SDS011;24559;53.590;9.764;2023-09-08T10:15:55;7.63;;;6.25;;
25333;SDS011;24559;53.590;9.764;2023-09-08T10:18:23;6.95;;;6.03;;
25333;SDS011;24559;53.590;9.764;2023-09-08T10:20:51;6.70;;;5.70;;
25333;SDS011;24559;53.590;9.764;2023-09-08T10:23:27;9.23;;;6.30;;
25333;SDS011;24559;53.590;9.764;2023-09-08T10:25:59;7.60;;;5.82;;
25333;SDS011;24559;53.590;9.764;2023-09-08T10:28:26;7.82;;;6.00;;
25333;SDS011;24559;53.590;9.764;2023-09-08T10:30:52;7.97;;;6.20;;
25333;SDS011;24559;53.590;9.764;2023-09-08T10:33:19;7.45;;;6.00;;
25333;SDS011;24559;53.590;9.764;2023-09-08T10:35:46;6.47;;;5.95;;
25333;SDS011;24559;53.590;9.764;2023-09-08T10:40:49;7.10;;;5.88;;
25333;SDS011;24559;53.590;9.764;2023-09-08T10:43:15;6.28;;;5.68;;
25333;SDS011;24559;53.590;9.764;2023-09-08T10:45:42;6.40;;;5.70;;
25333;SDS011;24559;53.590;9.764;2023-09-08T10:48:09;6.20;;;5.78;;
25333;SDS011;24559;53.590;9.764;2023-09-08T10:50:38;8.32;;;6.20;;
25333;SDS011;24559;53.590;9.764;2023-09-08T10:55:50;6.15;;;5.28;;
25333;SDS011;24559;53.590;9.764;2023-09-08T11:01:04;6.18;;;5.68;;
25333;SDS011;24559;53.590;9.764;2023-09-08T11:06:03;6.88;;;6.28;;
25333;SDS011;24559;53.590;9.764;2023-09-08T11:08:29;6.95;;;5.68;;
25333;SDS011;24559;53.590;9.764;2023-09-08T11:10:56;5.85;;;5.28;;
25333;SDS011;24559;53.590;9.764;2023-09-08T11:13:22;8.55;;;6.18;;
25333;SDS011;24559;53.590;9.764;2023-09-08T11:15:54;7.65;;;5.82;;
25333;SDS011;24559;53.590;9.764;2023-09-08T11:18:28;6.50;;;5.97;;
25333;SDS011;24559;53.590;9.764;2023-09-08T11:20:54;6.10;;;5.50;;
25333;SDS011;24559;53.590;9.764;2023-09-08T11:23:20;7.13;;;5.82;;
25333;SDS011;24559;53.590;9.764;2023-09-08T11:25:47;8.98;;;6.45;;
25333;SDS011;24559;53.590;9.764;2023-09-08T11:28:13;7.20;;;5.75;;
25333;SDS011;24559;53.590;9.764;2023-09-08T11:30:45;9.45;;;5.97;;
25333;SDS011;24559;53.590;9.764;2023-09-08T11:33:21;6.75;;;6.00;;
25333;SDS011;24559;53.590;9.764;2023-09-08T11:35:50;7.47;;;5.85;;
25333;SDS011;24559;53.590;9.764;2023-09-08T11:38:16;6.55;;;5.65;;
25333;SDS011;24559;53.590;9.764;2023-09-08T11:40:42;6.35;;;5.80;;
25333;SDS011;24559;53.590;9.764;2023-09-08T11:43:08;6.70;;;5.90;;
25333;SDS011;24559;53.590;9.764;2023-09-08T11:45:35;7.05;;;5.95;;
25333;SDS011;24559;53.590;9.764;2023-09-08T11:48:01;7.60;;;5.82;;
25333;SDS011;24559;53.590;9.764;2023-09-08T11:50:27;5.88;;;5.45;;
25333;SDS011;24559;53.590;9.764;2023-09-08T11:52:54;8.93;;;5.90;;
25333;SDS011;24559;53.590;9.764;2023-09-08T11:55:21;6.85;;;6.07;;
25333;SDS011;24559;53.590;9.764;2023-09-08T11:57:49;5.65;;;5.25;;
25333;SDS011;24559;53.590;9.764;2023-09-08T12:00:16;6.03;;;5.53;;
25333;SDS011;24559;53.590;9.764;2023-09-08T12:02:46;5.63;;;5.22;;
25333;SDS011;24559;53.590;9.764;2023-09-08T12:05:25;6.03;;;5.57;;
25333;SDS011;24559;53.590;9.764;2023-09-08T12:07:52;6.47;;;5.72;;
25333;SDS011;24559;53.590;9.764;2023-09-08T12:10:19;5.68;;;5.20;;
25333;SDS011;24559;53.590;9.764;2023-09-08T12:12:46;7.05;;;5.15;;
25333;SDS011;24559;53.590;9.764;2023-09-08T12:15:28;5.43;;;4.93;;
25333;SDS011;24559;53.590;9.764;2023-09-08T12:17:57;5.85;;;5.07;;
25333;SDS011;24559;53.590;9.764;2023-09-08T12:20:23;5.40;;;4.90;;
25333;SDS011;24559;53.590;9.764;2023-09-08T12:22:49;5.18;;;4.80;;
25333;SDS011;24559;53.590;9.764;2023-09-08T12:25:16;5.97;;;5.22;;
25333;SDS011;24559;53.590;9.764;2023-09-08T12:27:42;6.32;;;4.85;;
25333;SDS011;24559;53.590;9.764;2023-09-08T12:30:09;5.60;;;5.03;;
25333;SDS011;24559;53.590;9.764;2023-09-08T12:32:35;6.00;;;4.90;;
25333;SDS011;24559;53.590;9.764;2023-09-08T12:35:02;6.25;;;4.68;;
25333;SDS011;24559;53.590;9.764;2023-09-08T12:37:29;5.10;;;4.70;;
25333;SDS011;24559;53.590;9.764;2023-09-08T12:39:56;7.20;;;4.28;;
25333;SDS011;24559;53.590;9.764;2023-09-08T12:42:23;3.60;;;3.40;;
25333;SDS011;24559;53.590;9.764;2023-09-08T12:44:51;8.15;;;4.25;;
25333;SDS011;24559;53.590;9.764;2023-09-08T12:47:18;3.67;;;3.47;;
25333;SDS011;24559;53.590;9.764;2023-09-08T12:49:44;4.35;;;4.05;;
25333;SDS011;24559;53.590;9.764;2023-09-08T12:52:10;4.53;;;4.00;;
25333;SDS011;24559;53.590;9.764;2023-09-08T12:54:37;5.88;;;3.97;;
25333;SDS011;24559;53.590;9.764;2023-09-08T12:57:03;3.85;;;3.65;;
25333;SDS011;24559;53.590;9.764;2023-09-08T12:59:29;4.88;;;4.45;;
25333;SDS011;24559;53.590;9.764;2023-09-08T13:01:55;4.18;;;3.88;;
25333;SDS011;24559;53.590;9.764;2023-09-08T13:04:23;4.75;;;4.10;;
25333;SDS011;24559;53.590;9.764;2023-09-08T13:06:49;3.92;;;3.63;;
25333;SDS011;24559;53.590;9.764;2023-09-08T13:09:15;3.97;;;3.67;;
25333;SDS011;24559;53.590;9.764;2023-09-08T13:11:42;3.88;;;3.55;;
25333;SDS011;24559;53.590;9.764;2023-09-08T13:14:08;4.03;;;3.70;;
25333;SDS011;24559;53.590;9.764;2023-09-08T13:16:34;4.65;;;4.18;;
25333;SDS011;24559;53.590;9.764;2023-09-08T13:19:00;4.00;;;3.75;;
25333;SDS011;24559;53.590;9.764;2023-09-08T13:21:27;3.67;;;3.38;;
25333;SDS011;24559;53.590;9.764;2023-09-08T13:23:53;4.22;;;4.03;;
25333;SDS011;24559;53.590;9.764;2023-09-08T13:26:19;4.63;;;4.32;;
25333;SDS011;24559;53.590;9.764;2023-09-08T13:28:45;6.22;;;3.97;;
25333;SDS011;24559;53.590;9.764;2023-09-08T13:31:11;4.38;;;3.60;;
25333;SDS011;24559;53.590;9.764;2023-09-08T13:33:38;4.30;;;4.00;;
25333;SDS011;24559;53.590;9.764;2023-09-08T13:36:04;5.82;;;3.72;;
25333;SDS011;24559;53.590;9.764;2023-09-08T13:38:30;5.22;;;3.88;;
25333;SDS011;24559;53.590;9.764;2023-09-08T13:40:56;6.50;;;3.60;;
25333;SDS011;24559;53.590;9.764;2023-09-08T13:43:22;4.82;;;3.67;;
25333;SDS011;24559;53.590;9.764;2023-09-08T13:45:49;4.57;;;4.10;;
25333;SDS011;24559;53.590;9.764;2023-09-08T13:48:15;3.42;;;3.33;;
25333;SDS011;24559;53.590;9.764;2023-09-08T13:50:41;4.75;;;4.25;;
25333;SDS011;24559;53.590;9.764;2023-09-08T13:53:07;4.00;;;3.70;;
25333;SDS011;24559;53.590;9.764;2023-09-08T13:55:33;4.43;;;3.92;;
25333;SDS011;24559;53.590;9.764;2023-09-08T13:57:59;4.05;;;3.80;;
25333;SDS011;24559;53.590;9.764;2023-09-08T14:00:25;4.85;;;4.07;;
25333;SDS011;24559;53.590;9.764;2023-09-08T14:02:52;3.97;;;3.50;;
25333;SDS011;24559;53.590;9.764;2023-09-08T14:05:18;4.35;;;3.70;;
25333;SDS011;24559;53.590;9.764;2023-09-08T14:07:44;5.32;;;3.95;;
25333;SDS011;24559;53.590;9.764;2023-09-08T14:10:10;5.10;;;3.72;;
25333;SDS011;24559;53.590;9.764;2023-09-08T14:12:36;4.00;;;3.70;;
25333;SDS011;24559;53.590;9.764;2023-09-08T14:15:03;3.70;;;3.40;;
25333;SDS011;24559;53.590;9.764;2023-09-08T14:17:29;4.10;;;3.70;;
25333;SDS011;24559;53.590;9.764;2023-09-08T14:19:56;4.97;;;4.22;;
25333;SDS011;24559;53.590;9.764;2023-09-08T14:22:22;4.00;;;3.80;;
25333;SDS011;24559;53.590;9.764;2023-09-08T14:24:48;3.88;;;3.67;;
25333;SDS011;24559;53.590;9.764;2023-09-08T14:27:14;4.40;;;4.10;;
25333;SDS011;24559;53.590;9.764;2023-09-08T14:29:40;4.00;;;3.45;;
25333;SDS011;24559;53.590;9.764;2023-09-08T14:32:06;4.40;;;4.00;;
25333;SDS011;24559;53.590;9.764;2023-09-08T14:34:32;4.10;;;3.80;;
25333;SDS011;24559;53.590;9.764;2023-09-08T14:36:59;4.00;;;3.65;;
25333;SDS011;24559;53.590;9.764;2023-09-08T14:39:25;4.45;;;4.10;;
25333;SDS011;24559;53.590;9.764;2023-09-08T14:41:51;4.53;;;4.22;;
25333;SDS011;24559;53.590;9.764;2023-09-08T14:44:19;4.50;;;4.20;;
25333;SDS011;24559;53.590;9.764;2023-09-08T14:46:46;4.35;;;3.92;;
25333;SDS011;24559;53.590;9.764;2023-09-08T14:49:12;5.85;;;4.13;;
25333;SDS011;24559;53.590;9.764;2023-09-08T14:51:40;4.40;;;4.03;;
25333;SDS011;24559;53.590;9.764;2023-09-08T14:54:06;3.78;;;3.58;;
25333;SDS011;24559;53.590;9.764;2023-09-08T14:56:32;4.50;;;4.00;;
25333;SDS011;24559;53.590;9.764;2023-09-08T14:58:58;4.28;;;4.03;;